Time;durP1;ratioP1;P1;durP2;ratioP2;P2;SDS_P1;SDS_P2;PMS_P1;PMS_P2;Temp;Humidity;BMP_temperature;BMP_pressure;BME280_temperature;BME280_humidity;BME280_pressure;Samples;Min_cycle;Max_cycle;Signal;HPM_P1;HPM_P2
2022/01/20 00:00:54;;;;;;;250.10;103.23;;;;;;;-2.15;83.74;95399.34;5104087;28;20616;-80
2022/01/20 00:03:34;;;;;;;209.57;85.60;;;;;;;-2.31;84.34;95400.56;5103945;28;20710;-80
2022/01/20 00:09:34;;;;;;;207.97;81.53;;;;;;;-2.25;84.74;95409.44;5063228;28;20232;-80
2022/01/20 00:25:49;;;;;;;169.70;68.63;;;;;;;-2.36;85.30;95395.03;5029697;28;20293;-79
2022/01/20 00:26:41;;;;;;;164.73;65.00;;;;;;;-2.37;84.60;95375.59;5024819;28;20233;-79
2022/01/20 00:29:21;;;;;;;166.50;65.50;;;;;;;-2.28;85.14;95380.91;5085706;28;20224;-79
2022/01/20 00:32:07;;;;;;;145.43;60.43;;;;;;;-2.28;84.10;95374.88;5113618;28;20195;-78
2022/01/20 00:37:23;;;;;;;139.17;59.03;;;;;;;-2.27;84.50;95380.78;5093799;28;20655;-80
2022/01/20 00:39:54;;;;;;;151.47;59.53;;;;;;;-2.34;85.35;95372.03;5112297;28;20192;-79
2022/01/20 00:42:31;;;;;;;142.83;58.50;;;;;;;-2.32;84.28;95367.63;5113518;28;20228;-79
2022/01/20 00:45:06;;;;;;;151.43;60.23;;;;;;;-2.34;84.39;95374.59;5107097;28;20623;-79
2022/01/20 00:47:40;;;;;;;138.63;56.83;;;;;;;-2.36;84.77;95376.41;5108339;28;20209;-80
2022/01/20 00:50:12;;;;;;;156.43;59.80;;;;;;;-2.41;85.10;95368.34;5107516;28;20265;-80
2022/01/20 00:52:40;;;;;;;161.27;62.93;;;;;;;-2.42;85.39;95375.16;5113710;28;20196;-80
2022/01/20 00:55:11;;;;;;;147.20;60.30;;;;;;;-2.43;85.11;95358.31;5113295;28;20231;-80
2022/01/20 00:57:40;;;;;;;152.33;60.03;;;;;;;-2.38;85.17;95363.84;5112632;28;20238;-80
2022/01/20 01:00:11;;;;;;;158.90;65.03;;;;;;;-2.37;85.17;95365.44;5113114;28;20200;-79
2022/01/20 01:02:46;;;;;;;170.67;64.93;;;;;;;-2.40;84.77;95359.78;5113255;28;20861;-80
2022/01/20 01:05:16;;;;;;;173.83;71.57;;;;;;;-2.40;85.10;95363.16;5106686;28;20234;-80
2022/01/20 01:07:48;;;;;;;187.23;75.07;;;;;;;-2.39;84.81;95367.28;5100095;28;20231;-78
2022/01/20 01:10:20;;;;;;;193.27;77.10;;;;;;;-2.47;85.06;95354.38;5106739;28;20586;-78
2022/01/20 01:12:56;;;;;;;219.80;89.20;;;;;;;-2.52;85.38;95358.22;5112584;28;20260;-79
2022/01/20 01:15:30;;;;;;;231.17;95.33;;;;;;;-2.56;85.37;95359.38;5113077;28;20230;-79
2022/01/20 01:23:40;;;;;;;216.80;86.07;;;;;;;-2.55;84.83;95353.38;5112904;28;20214;-79
2022/01/20 01:26:15;;;;;;;197.60;82.33;;;;;;;-2.55;85.16;95346.56;5106658;28;20689;-77
2022/01/20 01:28:45;;;;;;;199.00;80.70;;;;;;;-2.55;85.68;95346.56;5112361;28;20207;-78
2022/01/20 01:34:07;;;;;;;183.60;75.93;;;;;;;-2.54;86.02;95337.97;5103663;28;20340;-78
2022/01/20 01:36:57;;;;;;;174.30;74.80;;;;;;;-2.55;86.22;95338.94;5107199;28;20600;-80
2022/01/20 01:39:24;;;;;;;171.53;73.80;;;;;;;-2.56;85.67;95332.22;5100942;28;20232;-80
2022/01/20 01:41:53;;;;;;;167.03;69.60;;;;;;;-2.66;85.95;95323.72;5112401;28;20204;-77
2022/01/20 01:44:27;;;;;;;166.07;69.60;;;;;;;-2.67;87.00;95321.28;5105573;28;20292;-79
2022/01/20 01:46:58;;;;;;;174.40;70.40;;;;;;;-2.73;86.33;95330.19;5112477;28;20675;-79
2022/01/20 01:49:31;;;;;;;179.30;67.67;;;;;;;-2.73;86.16;95309.03;5110056;28;20335;-79
2022/01/20 01:52:02;;;;;;;173.90;67.13;;;;;;;-2.71;86.03;95310.53;5096454;28;20219;-79
2022/01/20 01:54:32;;;;;;;171.03;67.93;;;;;;;-2.72;85.93;95316.56;5108039;28;20647;-79
2022/01/20 01:57:06;;;;;;;171.40;68.63;;;;;;;-2.81;86.43;95309.66;5110315;28;20202;-78
2022/01/20 01:59:35;;;;;;;153.47;60.13;;;;;;;-2.80;86.17;95306.19;5111865;28;20686;-78
2022/01/20 02:02:03;;;;;;;161.40;62.77;;;;;;;-2.81;86.45;95306.31;5105373;28;20235;-78
2022/01/20 02:04:34;;;;;;;162.07;65.17;;;;;;;-2.86;87.00;95302.38;5112451;28;20204;-79
2022/01/20 02:07:27;;;;;;;168.47;68.33;;;;;;;-2.83;86.56;95303.91;5112001;28;20253;-78
2022/01/20 02:18:36;;;;;;;132.80;56.53;;;;;;;-2.83;86.52;95290.38;5112050;28;20753;-78
2022/01/20 02:21:08;;;;;;;146.77;56.77;;;;;;;-2.83;86.64;95290.38;5111862;28;20200;-79
2022/01/20 02:23:40;;;;;;;109.53;44.83;;;;;;;-3.01;86.44;95285.00;5105493;28;20577;-78
2022/01/20 02:26:09;;;;;;;127.10;51.87;;;;;;;-3.07;87.66;95283.75;5111494;28;20202;-78
2022/01/20 02:28:42;;;;;;;118.90;45.97;;;;;;;-3.07;87.73;95280.38;5111681;28;20222;-78
2022/01/20 02:31:11;;;;;;;126.37;50.23;;;;;;;-3.03;87.45;95274.16;5111986;28;20216;-80
2022/01/20 02:33:41;;;;;;;134.67;52.07;;;;;;;-3.01;86.32;95269.75;5112219;28;20235;-79
2022/01/20 02:36:16;;;;;;;127.43;50.10;;;;;;;-3.06;86.55;95270.09;5104918;28;20719;-78
2022/01/20 02:38:56;;;;;;;129.97;50.17;;;;;;;-3.09;86.69;95269.53;5107705;28;20205;-79
2022/01/20 02:47:11;;;;;;;125.87;51.03;;;;;;;-3.20;87.96;95272.13;5028815;28;20202;-81
2022/01/20 02:49:49;;;;;;;129.43;51.50;;;;;;;-3.22;87.75;95266.31;5089594;28;20717;-81
2022/01/20 02:52:27;;;;;;;117.90;49.50;;;;;;;-3.28;87.51;95249.84;5098681;28;20208;-81
2022/01/20 02:54:55;;;;;;;121.70;47.93;;;;;;;-3.22;88.10;95262.06;5092501;28;20260;-81
2022/01/20 02:57:28;;;;;;;103.83;46.37;;;;;;;-3.24;88.36;95253.75;5112499;28;20236;-82
2022/01/20 03:00:02;;;;;;;115.57;48.53;;;;;;;-3.22;88.61;95256.97;5105416;28;20192;-79
2022/01/20 03:02:36;;;;;;;115.87;48.23;;;;;;;-3.17;88.40;95267.59;5104471;28;20295;-78
2022/01/20 03:05:07;;;;;;;114.37;48.30;;;;;;;-3.16;87.67;95251.41;5110987;28;20199;-78
2022/01/20 03:07:37;;;;;;;126.10;49.00;;;;;;;-3.09;87.73;95256.84;5104295;28;20207;-78
2022/01/20 03:10:06;;;;;;;123.50;50.83;;;;;;;-3.11;87.69;95251.84;5106580;28;20224;-78
2022/01/20 03:12:40;;;;;;;120.30;51.00;;;;;;;-3.09;86.99;95251.75;5102509;28;20253;-80
2022/01/20 03:15:11;;;;;;;123.17;52.53;;;;;;;-3.15;87.29;95244.59;5105860;28;20204;-78
2022/01/20 03:17:40;;;;;;;128.80;53.80;;;;;;;-3.17;87.44;95243.91;5105817;28;20228;-77
2022/01/20 03:20:10;;;;;;;126.30;53.97;;;;;;;-3.18;87.25;95255.00;5110445;28;20211;-78
2022/01/20 03:22:42;;;;;;;125.87;53.30;;;;;;;-3.26;87.66;95245.44;5110449;28;20231;-77
2022/01/20 03:25:14;;;;;;;131.83;53.37;;;;;;;-3.24;87.93;95246.13;5104493;28;20223;-78
2022/01/20 03:27:43;;;;;;;120.33;50.43;;;;;;;-3.29;87.59;95237.25;5111018;28;20204;-79
2022/01/20 03:30:13;;;;;;;127.00;53.87;;;;;;;-3.35;88.44;95247.91;5110563;28;20306;-79
2022/01/20 03:32:44;;;;;;;124.47;53.40;;;;;;;-3.35;89.25;95242.81;5110719;28;20268;-79
2022/01/20 03:35:15;;;;;;;132.23;53.17;;;;;;;-3.34;89.66;95239.34;5110771;28;20617;-80
2022/01/20 03:37:47;;;;;;;127.43;52.70;;;;;;;-3.35;89.09;95238.56;5104328;28;20689;-80
2022/01/20 03:40:25;;;;;;;127.57;52.10;;;;;;;-3.37;89.17;95227.69;5104289;28;20201;-80
2022/01/20 03:42:56;;;;;;;120.67;48.87;;;;;;;-3.38;88.57;95227.81;5111085;28;20203;-80
2022/01/20 03:45:32;;;;;;;114.30;48.30;;;;;;;-3.38;89.15;95225.28;5111350;28;20597;-80
2022/01/20 03:48:07;;;;;;;92.43;41.73;;;;;;;-3.42;89.30;95227.25;5111481;28;20204;-79
2022/01/20 03:53:26;;;;;;;91.23;37.70;;;;;;;-3.59;90.94;95222.66;5103361;28;20647;-77
2022/01/20 03:55:56;;;;;;;86.67;36.60;;;;;;;-3.58;91.11;95224.28;5113724;28;20230;-77
2022/01/20 03:58:25;;;;;;;90.33;37.73;;;;;;;-3.57;91.69;95223.34;5113732;28;20572;-76
2022/01/20 04:00:54;;;;;;;90.07;37.57;;;;;;;-3.52;90.47;95223.81;5114300;28;20196;-78
2022/01/20 04:03:23;;;;;;;87.40;38.37;;;;;;;-3.56;90.71;95227.50;5114341;28;20227;-78
2022/01/20 04:05:59;;;;;;;85.40;34.97;;;;;;;-3.58;90.95;95222.53;5114216;28;20237;-78
2022/01/20 04:08:34;;;;;;;69.53;31.27;;;;;;;-3.56;91.23;95219.88;5114388;28;20256;-79
2022/01/20 04:11:06;;;;;;;85.43;36.37;;;;;;;-3.45;90.88;95222.41;5113952;28;20208;-80
2022/01/20 04:13:36;;;;;;;94.03;37.53;;;;;;;-3.42;90.24;95223.88;5114416;28;20211;-78
2022/01/20 04:16:13;;;;;;;87.87;37.40;;;;;;;-3.45;90.14;95212.22;5111555;28;20219;-78
2022/01/20 04:18:51;;;;;;;97.33;40.23;;;;;;;-3.41;88.83;95211.09;5110250;28;20204;-78
2022/01/20 04:21:21;;;;;;;96.70;41.20;;;;;;;-3.40;89.16;95215.22;5114511;28;20604;-78
2022/01/20 04:23:55;;;;;;;95.40;41.27;;;;;;;-3.47;89.50;95216.63;5114546;28;20239;-79
2022/01/20 04:26:28;;;;;;;100.00;41.13;;;;;;;-3.47;89.08;95214.91;5114007;28;20652;-78
2022/01/20 04:29:02;;;;;;;103.83;43.50;;;;;;;-3.49;89.53;95218.47;5113879;28;20917;-77
2022/01/20 04:31:36;;;;;;;114.60;45.03;;;;;;;-3.50;90.30;95220.22;5107148;28;20363;-78
2022/01/20 04:34:08;;;;;;;106.07;41.80;;;;;;;-3.43;89.33;95210.38;5107686;28;20232;-77
2022/01/20 04:36:47;;;;;;;107.27;43.07;;;;;;;-3.47;88.98;95214.09;5106870;28;20211;-77
2022/01/20 04:39:23;;;;;;;103.17;42.43;;;;;;;-3.57;89.02;95218.25;5108548;28;20216;-78
2022/01/20 04:41:53;;;;;;;101.30;40.93;;;;;;;-3.50;88.32;95215.16;5113352;28;20658;-71
2022/01/20 04:44:34;;;;;;;99.40;38.27;;;;;;;-3.44;89.41;95216.41;5113243;28;20219;-71
2022/01/20 04:47:17;;;;;;;66.10;30.17;;;;;;;-3.47;90.41;95211.56;5113641;28;20192;-70
2022/01/20 04:58:23;;;;;;;112.57;44.97;;;;;;;-3.38;88.39;95202.41;5113327;28;20268;-71
2022/01/20 05:00:52;;;;;;;117.53;45.53;;;;;;;-3.36;87.51;95211.53;5112529;28;20207;-71
2022/01/20 05:03:28;;;;;;;108.17;44.47;;;;;;;-3.36;87.25;95220.88;5112888;28;20211;-71
2022/01/20 05:05:57;;;;;;;94.83;40.67;;;;;;;-3.43;88.29;95210.38;5112834;28;20235;-71
2022/01/20 05:08:28;;;;;;;86.50;39.33;;;;;;;-3.40;87.75;95217.75;5112622;28;20200;-71
2022/01/20 05:11:02;;;;;;;95.63;41.47;;;;;;;-3.40;87.44;95207.59;5112717;28;20224;-72
2022/01/20 05:13:35;;;;;;;92.87;40.00;;;;;;;-3.46;88.38;95208.06;5112994;28;20663;-73
2022/01/20 05:16:04;;;;;;;97.10;40.10;;;;;;;-3.51;88.20;95208.44;5112960;28;20228;-70
2022/01/20 05:18:33;;;;;;;104.63;39.87;;;;;;;-3.49;88.21;95204.03;5112292;28;20248;-71
2022/01/20 05:21:02;;;;;;;86.80;38.07;;;;;;;-3.43;88.08;95205.28;5112084;28;20235;-72
2022/01/20 05:23:33;;;;;;;102.50;42.03;;;;;;;-3.47;87.83;95209.84;5112458;28;20208;-71
2022/01/20 05:26:09;;;;;;;94.07;42.10;;;;;;;-3.42;87.76;95208.66;5112345;28;20253;-71
2022/01/20 05:28:37;;;;;;;113.93;46.10;;;;;;;-3.48;87.30;95205.66;5094216;28;20203;-72
2022/01/20 05:31:07;;;;;;;112.83;47.93;;;;;;;-3.45;87.93;95215.59;5110859;28;20714;-72
2022/01/20 05:33:35;;;;;;;132.23;52.70;;;;;;;-3.49;88.11;95215.94;5110849;28;20203;-73
2022/01/20 05:36:03;;;;;;;159.97;67.63;;;;;;;-3.49;89.65;95211.66;5111601;28;20215;-72
2022/01/20 05:38:31;;;;;;;150.47;63.70;;;;;;;-3.43;89.08;95214.69;5111874;28;20651;-72
2022/01/20 05:40:59;;;;;;;159.50;66.50;;;;;;;-3.45;88.63;95219.84;5111845;28;20258;-72
2022/01/20 05:43:30;;;;;;;153.10;63.67;;;;;;;-3.47;89.46;95209.03;5111261;28;20204;-72
2022/01/20 05:45:58;;;;;;;161.87;63.80;;;;;;;-3.53;89.06;95200.16;5110461;28;20666;-71
2022/01/20 05:48:35;;;;;;;162.83;67.20;;;;;;;-3.50;88.91;95214.34;5111620;28;20616;-72
2022/01/20 05:51:04;;;;;;;208.47;89.70;;;;;;;-3.53;88.74;95214.56;5111712;28;20288;-71
2022/01/20 05:53:34;;;;;;;318.50;132.17;;;;;;;-3.57;89.22;95223.34;5111678;28;20702;-71
2022/01/20 05:56:01;;;;;;;270.27;113.97;;;;;;;-3.59;89.72;95222.66;5110747;28;20243;-72
2022/01/20 05:58:33;;;;;;;240.17;97.70;;;;;;;-3.54;89.08;95226.47;5111096;28;20224;-72
2022/01/20 06:01:05;;;;;;;239.30;96.90;;;;;;;-3.57;89.19;95215.72;5110787;28;20196;-82
2022/01/20 06:03:40;;;;;;;241.67;101.43;;;;;;;-3.58;89.43;95219.22;5104888;28;20210;-73
2022/01/20 06:06:10;;;;;;;260.17;101.70;;;;;;;-3.60;89.63;95204.06;5112008;28;20215;-73
2022/01/20 06:08:39;;;;;;;286.13;112.20;;;;;;;-3.57;89.60;95218.25;5106055;28;20208;-71
2022/01/20 06:11:08;;;;;;;255.47;102.67;;;;;;;-3.50;89.11;95206.72;5111863;28;20650;-73
2022/01/20 06:13:37;;;;;;;233.90;95.13;;;;;;;-3.46;88.02;95213.97;5110953;28;20203;-71
2022/01/20 06:16:07;;;;;;;281.80;110.23;;;;;;;-3.44;87.74;95224.03;5111131;28;20204;-72
2022/01/20 06:18:35;;;;;;;259.60;105.37;;;;;;;-3.46;88.56;95215.69;5111487;28;20231;-72
2022/01/20 06:21:05;;;;;;;259.50;105.00;;;;;;;-3.47;88.11;95220.00;5110568;28;20628;-72
2022/01/20 06:23:35;;;;;;;253.27;100.93;;;;;;;-3.50;87.56;95217.69;5111818;28;20202;-72
2022/01/20 06:26:05;;;;;;;229.77;97.17;;;;;;;-3.43;87.59;95222.28;5111339;28;20207;-72
2022/01/20 06:28:34;;;;;;;249.07;107.17;;;;;;;-3.39;86.94;95216.84;5102440;28;20529;-72
2022/01/20 06:31:05;;;;;;;248.97;103.83;;;;;;;-3.42;86.55;95212.00;5107140;28;20220;-72
2022/01/20 06:33:32;;;;;;;269.50;113.10;;;;;;;-3.38;86.61;95215.94;5111338;28;20260;-71
2022/01/20 06:36:00;;;;;;;226.47;99.10;;;;;;;-3.31;86.28;95228.94;5111500;28;20294;-72
2022/01/20 06:38:38;;;;;;;165.53;65.60;;;;;;;-3.33;85.34;95223.16;5110658;28;20235;-71
2022/01/20 06:41:06;;;;;;;98.73;44.93;;;;;;;-3.39;85.00;95233.81;5100266;28;20188;-73
2022/01/20 06:43:35;;;;;;;70.00;32.83;;;;;;;-3.47;84.74;95224.25;5100970;28;20196;-72
2022/01/20 06:46:06;;;;;;;176.90;82.13;;;;;;;-3.35;85.09;95218.22;5102400;28;20196;-72
2022/01/20 06:48:33;;;;;;;131.63;57.63;;;;;;;-3.28;85.42;95221.88;5101149;28;20227;-71
2022/01/20 06:51:03;;;;;;;128.27;53.17;;;;;;;-3.23;84.82;95207.06;5103756;28;20276;-71
2022/01/20 06:53:33;;;;;;;122.77;51.17;;;;;;;-3.14;83.70;95223.34;5110283;28;20571;-72
2022/01/20 06:56:01;;;;;;;96.10;39.30;;;;;;;-3.11;83.31;95211.19;5109362;28;20246;-73
2022/01/20 06:58:32;;;;;;;74.50;35.50;;;;;;;-3.10;82.83;95217.09;5110248;28;20200;-71
2022/01/20 07:01:01;;;;;;;75.20;33.60;;;;;;;-3.07;83.10;95209.22;5110383;28;20227;-72
2022/01/20 07:03:33;;;;;;;56.77;27.83;;;;;;;-3.06;82.26;95221.00;5110523;28;20223;-72
2022/01/20 07:06:03;;;;;;;51.03;23.77;;;;;;;-3.00;81.50;95211.16;5110660;28;20196;-72
2022/01/20 07:08:31;;;;;;;58.40;22.50;;;;;;;-2.91;81.30;95220.59;5110894;28;20311;-71
2022/01/20 07:11:05;;;;;;;52.23;24.47;;;;;;;-2.82;79.79;95220.78;5111045;28;20228;-72
2022/01/20 07:13:35;;;;;;;57.13;21.97;;;;;;;-2.86;80.22;95220.25;5104841;28;20651;-70
2022/01/20 07:16:06;;;;;;;47.80;22.33;;;;;;;-2.78;79.97;95230.59;5110283;28;20203;-71
2022/01/20 07:18:36;;;;;;;50.27;23.07;;;;;;;-2.77;79.58;95233.94;5110939;28;20276;-71
2022/01/20 07:21:06;;;;;;;50.97;22.30;;;;;;;-2.76;78.83;95238.91;5109704;28;20654;-71
2022/01/20 07:23:37;;;;;;;55.03;22.30;;;;;;;-2.68;78.99;95239.09;5110571;28;20257;-77
2022/01/20 07:26:06;;;;;;;41.73;19.47;;;;;;;-2.59;78.34;95218.00;5114349;28;20667;-79
2022/01/20 07:28:35;;;;;;;44.70;19.83;;;;;;;-2.49;77.28;95233.31;5114978;28;20203;-79
2022/01/20 07:31:03;;;;;;;47.37;19.97;;;;;;;-2.41;77.37;95216.50;5106436;28;20220;-79
2022/01/20 07:33:32;;;;;;;47.57;20.83;;;;;;;-2.35;77.15;95208.38;5105377;28;20203;-80
2022/01/20 07:36:03;;;;;;;46.10;21.07;;;;;;;-2.37;77.46;95211.97;5116244;28;20254;-77
2022/01/20 07:38:34;;;;;;;50.03;20.83;;;;;;;-2.21;76.52;95219.16;5106663;28;20227;-77
2022/01/20 07:41:02;;;;;;;47.87;20.43;;;;;;;-2.19;75.76;95210.44;5107361;28;20191;-77
2022/01/20 07:43:30;;;;;;;40.00;18.37;;;;;;;-2.19;74.81;95205.34;5102905;28;20197;-77
2022/01/20 07:45:58;;;;;;;55.57;21.33;;;;;;;-2.12;74.87;95198.84;5106559;28;20280;-78
2022/01/20 07:48:26;;;;;;;45.17;18.47;;;;;;;-2.13;74.29;95202.31;5109660;28;20200;-80
2022/01/20 07:50:55;;;;;;;45.23;20.10;;;;;;;-2.10;74.98;95211.41;5114733;28;20262;-79
2022/01/20 07:53:24;;;;;;;37.47;18.30;;;;;;;-1.98;74.17;95218.03;5107097;28;20279;-76
2022/01/20 07:55:53;;;;;;;41.33;19.43;;;;;;;-1.93;74.06;95206.53;5103680;28;20229;-77
2022/01/20 07:58:21;;;;;;;38.83;18.37;;;;;;;-1.79;74.20;95221.47;5107437;28;20245;-78
2022/01/20 08:00:48;;;;;;;34.83;17.73;;;;;;;-1.70;72.77;95219.09;5111983;28;20200;-79
2022/01/20 08:03:15;;;;;;;37.83;17.27;;;;;;;-1.67;72.22;95208.66;5107807;28;20268;-81
2022/01/20 08:05:42;;;;;;;44.17;18.60;;;;;;;-1.57;71.82;95212.03;5115209;28;20188;-78
2022/01/20 08:08:09;;;;;;;41.67;18.73;;;;;;;-1.52;71.98;95222.63;5114805;28;20192;-78
2022/01/20 08:10:38;;;;;;;40.93;18.37;;;;;;;-1.47;71.77;95225.59;5114280;28;20363;-78
2022/01/20 08:13:06;;;;;;;38.70;18.67;;;;;;;-1.37;70.84;95224.66;5114279;28;20286;-78
2022/01/20 08:15:34;;;;;;;41.87;18.13;;;;;;;-1.26;69.97;95226.28;5107404;28;20278;-78
2022/01/20 08:18:01;;;;;;;43.07;18.93;;;;;;;-1.27;70.46;95229.78;5114915;28;20207;-76
2022/01/20 08:20:30;;;;;;;35.93;17.83;;;;;;;-1.25;70.57;95221.06;5110553;28;20288;-77
2022/01/20 08:22:58;;;;;;;43.10;18.53;;;;;;;-1.19;70.47;95220.56;5107159;28;20206;-79
2022/01/20 08:25:28;;;;;;;43.87;20.03;;;;;;;-1.06;67.84;95214.38;5102484;28;20197;-78
2022/01/20 08:27:57;;;;;;;48.47;20.17;;;;;;;-1.00;67.98;95214.66;5104808;28;20620;-78
2022/01/20 08:30:26;;;;;;;43.83;19.83;;;;;;;-1.04;68.24;95195.47;5104174;28;20192;-78
2022/01/20 08:32:59;;;;;;;43.27;20.13;;;;;;;-0.95;68.38;95191.31;5109935;28;20224;-79
2022/01/20 08:35:32;;;;;;;44.97;20.83;;;;;;;-0.80;67.65;95197.59;5114316;28;20239;-82
2022/01/20 08:38:09;;;;;;;46.97;21.27;;;;;;;-0.65;67.30;95214.91;5101222;28;20202;-85
2022/01/20 08:40:39;;;;;;;41.70;21.07;;;;;;;-0.59;66.45;95199.06;5109044;28;20192;-84
2022/01/20 08:43:17;;;;;;;46.53;21.70;;;;;;;-0.47;65.94;95198.91;5115013;28;20201;-82
2022/01/20 08:45:47;;;;;;;43.23;20.83;;;;;;;-0.43;64.31;95182.38;5114549;28;20211;-79
2022/01/20 08:48:18;;;;;;;49.60;21.33;;;;;;;-0.38;64.37;95196.34;5111237;28;20206;-82
2022/01/20 08:50:47;;;;;;;49.37;22.17;;;;;;;-0.32;64.12;95198.34;5106463;28;20212;-78
2022/01/20 08:53:18;;;;;;;48.00;21.63;;;;;;;-0.28;65.05;95197.09;5101330;27;20720;-78
2022/01/20 08:55:49;;;;;;;46.17;21.90;;;;;;;-0.16;63.65;95198.53;5105116;28;20231;-77
2022/01/20 08:58:28;;;;;;;55.93;22.83;;;;;;;-0.13;64.47;95189.81;5103125;28;20604;-78
2022/01/20 09:01:37;;;;;;;52.13;23.23;;;;;;;-0.09;65.66;95166.38;5104524;28;20663;-78
2022/01/20 09:04:08;;;;;;;49.63;22.70;;;;;;;0.23;63.40;95190.75;5110334;28;20741;-78
2022/01/20 09:06:39;;;;;;;53.83;23.53;;;;;;;0.35;62.68;95192.13;5112087;27;20214;-78
2022/01/20 09:09:14;;;;;;;56.80;25.73;;;;;;;0.04;62.72;95132.06;5111767;28;20701;-78
2022/01/20 09:12:17;;;;;;;70.07;25.73;;;;;;;0.29;63.08;95164.63;5112200;28;20224;-78
2022/01/20 09:17:51;;;;;;;63.87;27.13;;;;;;;0.73;62.86;95191.13;5065621;28;20201;-78
2022/01/20 09:20:21;;;;;;;56.30;27.30;;;;;;;0.79;62.87;95178.56;5096484;28;20200;-79
2022/01/20 09:22:50;;;;;;;67.73;28.27;;;;;;;0.90;61.66;95172.41;5108347;28;20267;-77
2022/01/20 09:25:22;;;;;;;68.03;27.67;;;;;;;1.00;60.74;95180.84;5108273;28;20248;-78
2022/01/20 09:27:52;;;;;;;60.37;26.60;;;;;;;1.12;60.52;95172.00;5110602;28;20212;-77
2022/01/20 09:30:22;;;;;;;79.50;30.03;;;;;;;1.25;60.19;95177.53;5102908;28;20283;-77
2022/01/20 09:32:59;;;;;;;69.17;28.37;;;;;;;1.38;59.71;95166.91;5110011;28;20220;-76
2022/01/20 09:35:33;;;;;;;57.87;25.57;;;;;;;1.51;59.08;95162.19;5110493;28;20263;-76
2022/01/20 09:38:04;;;;;;;60.07;24.60;;;;;;;1.58;58.84;95152.97;5110873;28;20240;-76
2022/01/20 09:40:34;;;;;;;60.77;23.60;;;;;;;1.64;59.29;95157.47;5110558;28;20304;-76
2022/01/20 09:43:02;;;;;;;57.97;24.77;;;;;;;1.71;59.60;95155.91;5109763;28;20202;-76
2022/01/20 09:45:32;;;;;;;66.20;23.37;;;;;;;1.82;59.32;95142.06;5111084;28;20231;-76
2022/01/20 09:48:03;;;;;;;56.47;23.33;;;;;;;1.90;58.23;95135.22;5109266;28;20196;-77
2022/01/20 09:50:31;;;;;;;59.50;23.10;;;;;;;2.10;58.66;95139.16;5105492;28;20201;-76
2022/01/20 09:53:01;;;;;;;53.20;23.13;;;;;;;2.22;58.31;95124.28;5109523;28;20222;-76
2022/01/20 09:55:32;;;;;;;48.37;23.10;;;;;;;2.35;57.83;95113.56;5103961;28;20293;-77
2022/01/20 09:58:00;;;;;;;51.07;22.63;;;;;;;2.46;56.99;95108.16;5110697;28;20207;-76
2022/01/20 10:00:29;;;;;;;45.70;18.00;;;;;;;2.64;56.79;95106.25;5110229;28;20249;-77
2022/01/20 10:03:01;;;;;;;28.97;13.50;;;;;;;2.86;55.10;95103.88;5109567;28;20211;-77
2022/01/20 10:05:33;;;;;;;21.10;8.67;;;;;;;3.58;50.69;95106.56;5109913;28;20655;-76
2022/01/20 10:08:04;;;;;;;15.13;6.73;;;;;;;5.13;48.33;95094.34;5110335;28;20608;-76
2022/01/20 10:10:50;;;;;;;21.63;7.00;;;;;;;7.67;42.93;95096.72;5110552;28;20918;-76
2022/01/20 10:13:20;;;;;;;9.93;4.50;;;;;;;9.86;35.38;95100.53;5109879;28;20267;-75
2022/01/20 10:16:04;;;;;;;11.77;4.07;;;;;;;11.98;30.95;95094.81;5103696;28;20202;-75
2022/01/20 10:18:35;;;;;;;9.83;4.00;;;;;;;13.71;27.99;95096.59;5109774;28;20269;-75
2022/01/20 10:21:06;;;;;;;11.67;3.90;;;;;;;14.70;26.36;95086.72;5108339;28;20220;-76
2022/01/20 10:23:37;;;;;;;10.40;3.70;;;;;;;16.07;24.29;95081.19;5110135;28;20697;-75
2022/01/20 10:26:08;;;;;;;9.47;3.57;;;;;;;16.87;23.41;95082.22;5109736;28;20219;-76
2022/01/20 10:28:55;;;;;;;9.70;3.83;;;;;;;17.84;22.27;95081.28;5106624;28;20236;-76
2022/01/20 10:31:36;;;;;;;10.40;4.53;;;;;;;18.77;21.49;95077.09;5103098;28;20219;-76
2022/01/20 10:34:09;;;;;;;11.40;5.17;;;;;;;18.96;20.75;95070.34;5109396;28;20258;-76
2022/01/20 10:36:50;;;;;;;18.07;7.97;;;;;;;18.23;21.11;95071.28;5109185;28;20243;-75
2022/01/20 10:39:18;;;;;;;24.00;6.93;;;;;;;17.64;21.71;95068.00;5110143;28;20200;-75
2022/01/20 10:41:48;;;;;;;15.03;6.80;;;;;;;18.12;21.24;95065.97;5109369;28;20226;-75
2022/01/20 10:44:16;;;;;;;10.27;5.43;;;;;;;18.35;20.75;95064.00;5109346;28;20223;-79
2022/01/20 10:46:52;;;;;;;15.27;6.13;;;;;;;17.99;21.09;95058.53;5108334;28;20667;-75
2022/01/20 10:49:30;;;;;;;15.93;5.33;;;;;;;18.20;21.16;95056.81;5109991;28;20585;-76
2022/01/20 10:52:00;;;;;;;10.23;4.57;;;;;;;18.05;21.01;95054.88;5102974;28;20300;-76
2022/01/20 10:54:36;;;;;;;14.23;4.70;;;;;;;18.90;20.71;95040.56;5108622;28;20295;-76
2022/01/20 10:57:06;;;;;;;13.50;6.53;;;;;;;19.58;19.90;95036.69;5108113;28;20211;-76
2022/01/20 10:59:35;;;;;;;16.67;7.73;;;;;;;19.63;20.00;95027.97;5108290;28;20253;-76
2022/01/20 11:02:07;;;;;;;15.63;8.20;;;;;;;18.87;19.80;95024.47;5109433;28;20243;-76
2022/01/20 11:04:38;;;;;;;40.03;14.73;;;;;;;17.65;20.28;95033.59;5109505;28;20203;-76
2022/01/20 11:07:08;;;;;;;11.93;5.77;;;;;;;16.71;18.71;95021.94;5108216;28;20207;-75
2022/01/20 11:09:39;;;;;;;10.80;5.97;;;;;;;15.89;19.78;95020.13;5109142;28;20226;-76
2022/01/20 11:12:08;;;;;;;11.53;5.30;;;;;;;15.45;20.25;95033.31;5108066;28;20228;-75
2022/01/20 11:14:35;;;;;;;13.53;6.10;;;;;;;14.99;20.74;95013.44;5109628;28;20661;-75
2022/01/20 11:17:04;;;;;;;14.07;5.50;;;;;;;14.61;21.26;95007.00;5103178;28;20208;-75
2022/01/20 11:19:39;;;;;;;22.93;8.90;;;;;;;14.44;21.84;95011.41;5108856;28;20257;-75
2022/01/20 11:22:09;;;;;;;9.63;5.97;;;;;;;14.72;21.51;95007.97;5108390;28;20199;-75
2022/01/20 11:24:37;;;;;;;15.27;6.43;;;;;;;14.91;21.49;95005.97;5101668;28;20553;-76
2022/01/20 11:27:08;;;;;;;11.70;6.23;;;;;;;14.82;22.08;94997.72;5108898;28;20286;-75
2022/01/20 11:29:45;;;;;;;7.60;4.20;;;;;;;14.15;22.62;95001.91;5103711;28;20283;-75
2022/01/20 11:32:21;;;;;;;10.37;5.47;;;;;;;14.54;22.17;94995.91;5108888;28;20310;-76
2022/01/20 11:35:01;;;;;;;11.73;6.00;;;;;;;14.21;22.60;95003.59;5108478;28;20203;-75
2022/01/20 11:37:34;;;;;;;14.57;7.30;;;;;;;14.32;22.83;94986.28;5108544;28;20693;-75
2022/01/20 11:40:12;;;;;;;13.97;6.10;;;;;;;14.05;23.33;94991.25;5109420;28;20291;-74
2022/01/20 11:42:40;;;;;;;14.97;6.57;;;;;;;14.14;23.43;94992.50;5108713;28;20253;-75
2022/01/20 11:45:28;;;;;;;9.63;6.10;;;;;;;14.34;23.08;94992.13;5108284;28;20199;-75
2022/01/20 11:47:56;;;;;;;15.07;6.37;;;;;;;14.31;23.25;94992.53;5109254;28;20196;-74
2022/01/20 11:50:25;;;;;;;15.47;7.67;;;;;;;14.93;22.62;94998.66;5108443;28;20665;-74
2022/01/20 11:52:53;;;;;;;8.77;5.10;;;;;;;15.28;21.95;95004.50;5107800;28;20228;-75
2022/01/20 11:55:20;;;;;;;11.43;5.50;;;;;;;15.46;21.51;94990.38;5108983;28;20834;-75
2022/01/20 11:57:48;;;;;;;9.07;4.50;;;;;;;15.61;21.41;95001.88;5108256;28;20287;-75
2022/01/20 12:00:24;;;;;;;11.87;4.73;;;;;;;15.73;21.62;94988.69;5108696;28;20239;-75
2022/01/20 12:02:52;;;;;;;9.97;6.27;;;;;;;16.02;21.06;94990.13;5107447;28;20218;-75
2022/01/20 12:05:26;;;;;;;15.23;8.63;;;;;;;16.32;20.87;94987.09;5107506;28;20204;-75
2022/01/20 12:08:05;;;;;;;12.47;5.90;;;;;;;15.43;22.18;94988.22;5107726;28;20204;-75
2022/01/20 12:10:33;;;;;;;7.63;3.80;;;;;;;14.06;24.05;94966.69;5108523;28;20573;-75
2022/01/20 12:13:11;;;;;;;7.07;3.80;;;;;;;12.69;25.77;94983.66;5110429;28;20251;-75
2022/01/20 12:15:49;;;;;;;13.07;5.73;;;;;;;12.84;26.14;94978.03;5110689;28;20196;-75
2022/01/20 12:18:16;;;;;;;7.37;4.40;;;;;;;13.18;26.23;94979.94;5110564;28;20208;-75
2022/01/20 12:20:44;;;;;;;13.67;6.20;;;;;;;13.38;26.41;94972.56;5106357;28;20208;-75
2022/01/20 12:23:13;;;;;;;13.93;6.70;;;;;;;13.33;26.17;94964.59;5111809;28;20237;-76
2022/01/20 12:25:40;;;;;;;11.30;6.70;;;;;;;13.53;25.50;94972.91;5111716;28;20269;-75
2022/01/20 12:28:10;;;;;;;9.93;5.00;;;;;;;13.56;25.32;94974.28;5112578;28;20204;-77
2022/01/20 12:30:40;;;;;;;5.77;3.27;;;;;;;14.28;24.89;94969.47;5107579;28;20196;-77
2022/01/20 12:33:12;;;;;;;7.60;4.40;;;;;;;14.17;24.47;94965.84;5111775;28;20207;-74